Chicago Rockford International Airport
KRFD : now visible

Aeroporto :











RITROVATECI SU...

 
LOGIN :

Iscrizione | Disclaimer

   EN    FR    IT 

 









Sommario :    VFR   VFR Marginale   IFR   IFR Intensivo   IFR Molto Intensivo
Visibilità : 
Base nubi : 
>= 8 km
>= 3000ft
5 / 8 km
1000 / 3000 ft
1500m / 5 km
500 / 1000 ft
800 / 1500m
200 / 500 ft
< 800m
< 200 ft
Simboli :   Temporali  Nebbia  Neve Forte  Precipitazioni Forti  Vento > 20 kt






- Altitudine del aeroporto : 742 ft
- Codice IATA : RFD


KRFD - Chicago Rockford International

ULTIMO METAR :
  • 100854Z 32008KT 9SM OVC007 21/19 A2981 RMK AO2 RAE26 CIG 005V012 SLP087 P0000 60004 T02110194 51001

METARs OBSOLETI :
  • 100754Z 32008KT 10SM -RA BKN006 BKN028 OVC034 22/20 A2980 RMK AO2 SLP085 P0002 T02170200
  • 100716Z 30007KT 6SM -RA BR SCT005 BKN015 OVC033 22/20 A2981 RMK AO2 P0002 T02170200
  • 100654Z 29007KT 5SM -RA BR BKN007 OVC013 22/20 A2981 RMK AO2 SLP088 P0002 T02170200
  • 100631Z 29006KT 10SM -RA BKN006 OVC032 22/20 A2981 RMK AO2 CIG 004V008 P0000 T02170200

TAF KRFD
Valido dal 10 a 07 ore il 11 a 06 ore UTC


100638Z 1007/1106 32009KT P6SM VCSH SCT006 BKN020
TEMPO 1007/1010 -SHRA BKN006
FM101400 34015G24KT P6SM BKN035
FM110100 29007KT P6SM FEW040
FIR KZAU / America del Nord



MetMap, La meteo Aeronautica in un colpo d'occhio ! - Copyright ORBIFLY Dicembre 2007 - Disclaimer

ORBIFLY MET'MAP TEAM :

Programmazione e sviluppo : Alexandra Zaïnal
Concezione : Baudouin d'Aumeries
Aiuto per la programmazione : Marc-Olivier Méhu
Supporto tecnico e logistico : Manuel Goepfert
Aiuto per la traduzione : Arnaldo La Scala

Contatto : metmap@orbifly.com




FONTI E CREDITI :

   NOAA       Earth
Advisory